Time;durP1;ratioP1;P1;durP2;ratioP2;P2;SDS_P1;SDS_P2;PMS_P1;PMS_P2;Temp;Humidity;BMP_temperature;BMP_pressure;BME280_temperature;BME280_humidity;BME280_pressure;Samples;Min_cycle;Max_cycle;Signal;HPM_P1;HPM_P2
2021/12/27 00:00:34;;;;;;;17.52;11.00;;;;;;;;;;4995261;28;20105;-86
2021/12/27 00:03:01;;;;;;;20.92;10.85;;;;;;;;;;4992731;28;20076;-86
2021/12/27 00:05:28;;;;;;;17.70;10.82;;;;;;;;;;4994184;28;20093;-86
2021/12/27 00:07:54;;;;;;;22.23;12.25;;;;;;;;;;4993137;28;20470;-86
2021/12/27 00:10:22;;;;;;;16.25;10.30;;;;;;;;;;4994094;28;20046;-86
2021/12/27 00:12:48;;;;;;;16.83;10.40;;;;;;;;;;4994451;28;20394;-86
2021/12/27 00:15:15;;;;;;;24.38;11.95;;;;;;;;;;4994150;28;20030;-87
2021/12/27 00:17:45;;;;;;;22.10;11.10;;;;;;;;;;4994789;28;20091;-86
2021/12/27 00:20:14;;;;;;;21.38;11.77;;;;;;;;;;4994338;28;20046;-87
2021/12/27 00:22:40;;;;;;;20.15;10.80;;;;;;;;;;4991962;28;20023;-86
2021/12/27 00:25:06;;;;;;;19.55;13.07;;;;;;;;;;4993836;28;20105;-86
2021/12/27 00:27:32;;;;;;;19.77;11.20;;;;;;;;;;4994062;28;20532;-86
2021/12/27 00:29:58;;;;;;;20.02;11.40;;;;;;;;;;4993736;28;20126;-86
2021/12/27 00:32:25;;;;;;;19.13;11.07;;;;;;;;;;4994334;28;20027;-86
2021/12/27 00:34:51;;;;;;;25.48;12.30;;;;;;;;;;4993671;28;20026;-86
2021/12/27 00:37:17;;;;;;;21.58;11.80;;;;;;;;;;5014280;28;20027;-85
2021/12/27 00:39:43;;;;;;;21.83;11.60;;;;;;;;;;5018567;28;20007;-86
2021/12/27 00:42:09;;;;;;;20.00;11.75;;;;;;;;;;5018538;28;20025;-86
2021/12/27 00:44:35;;;;;;;19.08;10.98;;;;;;;;;;5011975;28;20022;-86
2021/12/27 00:47:01;;;;;;;21.25;11.43;;;;;;;;;;4990964;28;20046;-87
2021/12/27 00:49:28;;;;;;;19.92;10.90;;;;;;;;;;4992655;28;20077;-86
2021/12/27 00:51:54;;;;;;;23.65;11.25;;;;;;;;;;4994322;28;20032;-86
2021/12/27 00:54:20;;;;;;;25.00;11.95;;;;;;;;;;4992526;28;20072;-86
2021/12/27 00:56:46;;;;;;;19.73;11.25;;;;;;;;;;4993090;28;20026;-86
2021/12/27 00:59:13;;;;;;;18.73;11.00;;;;;;;;;;4993321;28;20479;-86
2021/12/27 01:01:39;;;;;;;21.13;11.43;;;;;;;;;;4993534;28;20049;-86
2021/12/27 01:04:07;;;;;;;18.00;10.90;;;;;;;;;;4994268;28;20022;-86
2021/12/27 01:06:33;;;;;;;20.15;11.77;;;;;;;;;;4992529;28;20022;-87
2021/12/27 01:08:59;;;;;;;25.05;11.80;;;;;;;;;;4992905;28;20030;-86
2021/12/27 01:11:58;;;;;;;25.60;13.25;;;;;;;;;;4992775;28;20030;-86
2021/12/27 01:14:39;;;;;;;24.40;12.63;;;;;;;;;;4993898;28;20026;-87
2021/12/27 01:17:06;;;;;;;24.63;13.35;;;;;;;;;;4992063;28;20022;-86
2021/12/27 01:19:32;;;;;;;29.45;13.48;;;;;;;;;;4992393;28;20045;-86
2021/12/27 01:21:58;;;;;;;21.38;12.55;;;;;;;;;;4992607;28;20038;-86
2021/12/27 01:24:24;;;;;;;22.30;12.10;;;;;;;;;;4993773;28;20031;-86
2021/12/27 01:26:50;;;;;;;25.50;13.15;;;;;;;;;;4993802;28;20088;-86
2021/12/27 01:29:16;;;;;;;25.88;12.57;;;;;;;;;;4993802;28;20031;-87
2021/12/27 01:31:54;;;;;;;25.48;13.30;;;;;;;;;;4992710;28;20600;-87
2021/12/27 01:35:01;;;;;;;28.10;13.07;;;;;;;;;;4993981;28;20033;-87
2021/12/27 01:37:51;;;;;;;22.30;12.10;;;;;;;;;;4982790;28;20034;-87
2021/12/27 01:46:41;;;;;;;22.80;12.65;;;;;;;;;;4971565;28;20087;-87
2021/12/27 01:52:02;;;;;;;23.70;13.90;;;;;;;;;;3154359;22;20043;-87
2021/12/27 01:54:56;;;;;;;21.77;11.65;;;;;;;;;;4991530;28;20126;-86
2021/12/27 01:58:00;;;;;;;27.30;12.07;;;;;;;;;;4992544;28;20379;-86
2021/12/27 02:00:26;;;;;;;20.55;11.73;;;;;;;;;;4972258;28;20052;-86
2021/12/27 02:03:25;;;;;;;26.02;13.23;;;;;;;;;;4974766;28;20035;-85
2021/12/27 02:09:04;;;;;;;;;;;;;;;;;;5199303;23;20108;-85
2021/12/27 02:11:34;;;;;;;24.17;13.07;;;;;;;;;;4993204;28;19905;-86
2021/12/27 02:14:18;;;;;;;;;;;;;;;;;;;;;
2021/12/27 02:32:52;;;;;;;19.02;11.15;;;;;;;;;;4934224;29;20035;-86
2021/12/27 02:35:21;;;;;;;25.70;11.30;;;;;;;;;;4908590;29;20040;-86
2021/12/27 02:37:48;;;;;;;23.63;11.18;;;;;;;;;;4986305;28;20597;-85
2021/12/27 02:40:14;;;;;;;18.92;9.82;;;;;;;;;;4996553;28;20372;-87
2021/12/27 02:42:59;;;;;;;22.20;10.52;;;;;;;;;;4997740;28;20030;-85
2021/12/27 02:45:29;;;;;;;20.63;10.07;;;;;;;;;;4997155;28;20035;-86
2021/12/27 02:47:57;;;;;;;23.52;9.82;;;;;;;;;;4997832;28;20033;-86
2021/12/27 02:50:25;;;;;;;15.07;8.82;;;;;;;;;;4997533;28;20049;-86
2021/12/27 02:52:53;;;;;;;17.85;10.38;;;;;;;;;;4998846;28;20085;-87
2021/12/27 02:55:20;;;;;;;16.02;9.40;;;;;;;;;;5019656;28;20034;-86
2021/12/27 02:57:47;;;;;;;18.38;9.45;;;;;;;;;;5019599;28;20022;-87
2021/12/27 03:00:17;;;;;;;14.80;8.88;;;;;;;;;;5000442;28;20094;-85
2021/12/27 03:02:44;;;;;;;16.43;9.23;;;;;;;;;;4997931;28;20102;-85
2021/12/27 03:05:43;;;;;;;12.80;8.02;;;;;;;;;;4997351;28;20030;-85
2021/12/27 03:11:26;;;;;;;17.60;8.57;;;;;;;;;;4992992;28;20054;-86
2021/12/27 03:13:53;;;;;;;16.58;8.45;;;;;;;;;;4994762;28;20046;-84
2021/12/27 03:16:36;;;;;;;14.60;8.82;;;;;;;;;;4978592;28;20054;-87
2021/12/27 03:19:39;;;;;;;;;;;;;;;;;;;;;
2021/12/27 03:26:12;;;;;;;11.98;7.60;;;;;;;;;;4915670;29;20043;-88
2021/12/27 03:28:44;;;;;;;21.23;8.60;;;;;;;;;;4882494;29;20134;-85
2021/12/27 03:31:22;;;;;;;16.70;8.20;;;;;;;;;;4918355;29;20043;-85
2021/12/27 03:40:03;;;;;;;17.73;7.70;;;;;;;;;;4991657;28;20175;-86
2021/12/27 03:42:49;;;;;;;13.65;8.27;;;;;;;;;;5007495;28;20035;-85
2021/12/27 03:45:16;;;;;;;16.55;7.80;;;;;;;;;;5012494;28;20021;-86
2021/12/27 03:47:42;;;;;;;13.93;7.43;;;;;;;;;;5012340;28;20577;-87
2021/12/27 03:56:50;;;;;;;13.77;7.22;;;;;;;;;;5000262;28;20046;-86
2021/12/27 04:01:45;;;;;;;10.40;6.95;;;;;;;;;;4988609;28;20031;-87
2021/12/27 04:04:11;;;;;;;13.77;7.72;;;;;;;;;;4989228;28;20058;-86
2021/12/27 04:06:37;;;;;;;11.55;7.60;;;;;;;;;;4987284;28;20090;-86
2021/12/27 04:09:03;;;;;;;13.05;6.97;;;;;;;;;;4984534;28;20041;-87
2021/12/27 04:11:31;;;;;;;12.98;7.53;;;;;;;;;;4989901;28;20094;-86
2021/12/27 04:13:57;;;;;;;12.05;7.65;;;;;;;;;;4988895;28;20030;-87
2021/12/27 04:16:23;;;;;;;13.32;7.10;;;;;;;;;;5003507;28;20029;-87
2021/12/27 04:18:49;;;;;;;12.88;7.28;;;;;;;;;;5008480;28;20022;-87
2021/12/27 04:21:15;;;;;;;14.60;7.85;;;;;;;;;;5008219;28;20026;-86
2021/12/27 04:23:41;;;;;;;10.90;6.90;;;;;;;;;;5010024;28;20046;-86
2021/12/27 04:26:07;;;;;;;13.50;7.68;;;;;;;;;;5011650;28;20061;-86
2021/12/27 04:28:33;;;;;;;11.50;6.65;;;;;;;;;;5014450;28;20037;-87
2021/12/27 04:30:59;;;;;;;9.98;6.38;;;;;;;;;;5014224;28;20017;-86
2021/12/27 04:33:26;;;;;;;12.52;7.63;;;;;;;;;;5010813;28;20046;-87
2021/12/27 04:35:52;;;;;;;13.02;7.88;;;;;;;;;;5004812;28;20080;-86
2021/12/27 04:38:18;;;;;;;12.60;6.88;;;;;;;;;;5001812;28;20030;-87
2021/12/27 04:40:46;;;;;;;13.43;6.88;;;;;;;;;;5001137;28;20037;-86
2021/12/27 04:43:14;;;;;;;11.73;5.95;;;;;;;;;;5001671;28;20026;-86
2021/12/27 04:45:41;;;;;;;10.85;5.20;;;;;;;;;;5003500;28;20022;-87
2021/12/27 04:48:07;;;;;;;7.47;5.18;;;;;;;;;;5006582;28;20438;-86
2021/12/27 04:50:33;;;;;;;6.13;4.00;;;;;;;;;;5007985;28;20117;-84
2021/12/27 04:52:59;;;;;;;6.75;4.55;;;;;;;;;;5011359;28;20106;-84
2021/12/27 04:55:26;;;;;;;8.38;4.93;;;;;;;;;;5011853;28;20014;-85
2021/12/27 04:57:52;;;;;;;6.80;4.70;;;;;;;;;;5007846;28;20057;-85
2021/12/27 05:00:18;;;;;;;9.23;5.07;;;;;;;;;;5007828;28;20049;-85
2021/12/27 05:02:44;;;;;;;7.68;5.72;;;;;;;;;;5005965;28;20398;-86
2021/12/27 05:05:11;;;;;;;6.57;4.72;;;;;;;;;;5007690;28;20019;-85
2021/12/27 05:07:36;;;;;;;6.30;5.10;;;;;;;;;;5001521;28;20030;-86
2021/12/27 05:10:04;;;;;;;7.13;4.82;;;;;;;;;;4995668;28;20026;-87
2021/12/27 05:12:30;;;;;;;7.32;4.78;;;;;;;;;;4995435;28;20129;-85
2021/12/27 05:14:56;;;;;;;8.82;4.82;;;;;;;;;;4995693;28;20144;-85
2021/12/27 05:17:22;;;;;;;5.72;4.50;;;;;;;;;;4994195;28;20062;-84
2021/12/27 05:19:48;;;;;;;8.48;4.43;;;;;;;;;;5019952;23;20134;-81
2021/12/27 05:22:14;;;;;;;6.10;4.00;;;;;;;;;;4964311;29;20070;-82
2021/12/27 05:24:40;;;;;;;7.65;4.45;;;;;;;;;;4968414;28;20056;-81
2021/12/27 05:27:08;;;;;;;4.82;3.65;;;;;;;;;;4967926;28;20023;-81
2021/12/27 05:29:34;;;;;;;4.75;3.85;;;;;;;;;;4953012;28;20035;-82
2021/12/27 05:32:01;;;;;;;6.55;3.95;;;;;;;;;;4949398;29;20035;-81
2021/12/27 05:34:30;;;;;;;8.30;3.92;;;;;;;;;;4946906;29;20038;-82
2021/12/27 05:36:57;;;;;;;5.65;3.70;;;;;;;;;;4955510;29;20025;-82
2021/12/27 05:39:23;;;;;;;6.80;3.13;;;;;;;;;;4967735;28;20027;-83
2021/12/27 05:41:49;;;;;;;3.85;3.22;;;;;;;;;;4968313;28;20023;-81
2021/12/27 05:44:16;;;;;;;6.82;3.53;;;;;;;;;;4967582;29;20030;-81
2021/12/27 05:46:42;;;;;;;3.50;2.60;;;;;;;;;;4968432;28;20027;-82
2021/12/27 05:49:08;;;;;;;7.57;2.80;;;;;;;;;;4969232;28;20031;-81
2021/12/27 05:51:36;;;;;;;4.75;3.25;;;;;;;;;;4968389;28;20090;-81
2021/12/27 05:54:03;;;;;;;3.38;2.95;;;;;;;;;;4960798;29;20063;-81
2021/12/27 05:56:29;;;;;;;5.43;2.63;;;;;;;;;;4958047;28;20103;-82
2021/12/27 05:58:55;;;;;;;7.47;3.08;;;;;;;;;;4958591;28;20020;-78
2021/12/27 06:01:21;;;;;;;4.40;2.70;;;;;;;;;;4956987;28;20028;-80
2021/12/27 06:03:47;;;;;;;4.25;2.90;;;;;;;;;;4959018;28;20400;-81
2021/12/27 06:06:13;;;;;;;4.22;3.13;;;;;;;;;;4959369;28;20099;-81
2021/12/27 06:08:39;;;;;;;3.13;2.80;;;;;;;;;;4962716;28;20047;-82
2021/12/27 06:11:05;;;;;;;3.90;3.50;;;;;;;;;;4963350;28;20032;-82
2021/12/27 06:13:31;;;;;;;6.97;3.45;;;;;;;;;;4962836;28;20039;-82
2021/12/27 06:15:58;;;;;;;6.22;2.88;;;;;;;;;;4973046;28;20035;-82
2021/12/27 06:18:25;;;;;;;4.57;3.13;;;;;;;;;;4976811;28;20030;-82
2021/12/27 06:20:51;;;;;;;11.98;3.80;;;;;;;;;;4972225;28;20058;-79
2021/12/27 06:23:17;;;;;;;5.05;3.65;;;;;;;;;;4973043;28;20031;-82
2021/12/27 06:25:46;;;;;;;8.55;3.50;;;;;;;;;;4970924;29;20033;-81
2021/12/27 06:28:12;;;;;;;9.32;3.25;;;;;;;;;;4964331;28;20032;-81
2021/12/27 06:30:38;;;;;;;5.25;3.38;;;;;;;;;;4952530;29;20105;-81
2021/12/27 06:33:06;;;;;;;4.65;3.17;;;;;;;;;;4949735;29;20052;-81
2021/12/27 06:35:32;;;;;;;5.90;3.08;;;;;;;;;;4951006;29;20527;-81
2021/12/27 06:37:59;;;;;;;3.50;2.65;;;;;;;;;;4950191;29;20127;-81
2021/12/27 06:40:25;;;;;;;5.32;3.08;;;;;;;;;;4952212;29;20055;-81
2021/12/27 06:42:51;;;;;;;4.07;3.20;;;;;;;;;;4951327;29;20058;-80
2021/12/27 06:45:17;;;;;;;5.97;3.33;;;;;;;;;;4952153;29;20027;-81
2021/12/27 06:47:43;;;;;;;4.68;2.97;;;;;;;;;;4953818;29;20039;-81
2021/12/27 06:50:10;;;;;;;5.07;3.50;;;;;;;;;;4953278;29;20031;-81
2021/12/27 06:52:36;;;;;;;4.93;3.20;;;;;;;;;;4953327;29;20058;-82
2021/12/27 06:55:03;;;;;;;7.40;4.18;;;;;;;;;;4952895;29;20039;-81
2021/12/27 06:57:30;;;;;;;5.82;4.00;;;;;;;;;;4953027;29;20040;-82
2021/12/27 06:59:56;;;;;;;8.35;3.33;;;;;;;;;;4958121;28;20047;-82
2021/12/27 07:02:23;;;;;;;5.38;3.40;;;;;;;;;;4961799;28;20084;-82
2021/12/27 07:04:49;;;;;;;7.80;3.42;;;;;;;;;;4962188;28;20024;-82
2021/12/27 07:07:15;;;;;;;3.53;2.72;;;;;;;;;;4962015;28;20020;-81
2021/12/27 07:09:41;;;;;;;7.85;4.32;;;;;;;;;;4961926;28;20023;-81
2021/12/27 07:12:07;;;;;;;5.78;4.03;;;;;;;;;;4961766;28;20016;-80
2021/12/27 07:14:33;;;;;;;8.98;4.32;;;;;;;;;;4962319;28;20026;-82
2021/12/27 07:16:59;;;;;;;6.85;4.78;;;;;;;;;;4981043;28;20035;-81
2021/12/27 07:19:26;;;;;;;6.65;4.90;;;;;;;;;;4979654;28;20021;-81
2021/12/27 07:21:52;;;;;;;7.32;5.30;;;;;;;;;;4982199;28;20047;-83
2021/12/27 07:24:18;;;;;;;8.85;5.07;;;;;;;;;;4982261;28;20042;-81
2021/12/27 07:26:44;;;;;;;8.38;5.40;;;;;;;;;;4981990;28;20019;-81
2021/12/27 07:29:10;;;;;;;8.13;5.57;;;;;;;;;;4975933;28;20035;-79
2021/12/27 07:31:36;;;;;;;7.93;5.82;;;;;;;;;;4969424;29;20030;-81
2021/12/27 07:34:02;;;;;;;7.00;5.25;;;;;;;;;;4955646;29;20074;-79
2021/12/27 07:36:29;;;;;;;8.70;5.15;;;;;;;;;;4957465;28;20027;-79
2021/12/27 07:38:57;;;;;;;7.35;5.35;;;;;;;;;;4955692;29;20484;-80
2021/12/27 07:41:24;;;;;;;8.90;5.55;;;;;;;;;;4956782;28;20498;-79
2021/12/27 07:43:50;;;;;;;10.25;5.18;;;;;;;;;;4957226;28;20035;-79
2021/12/27 07:46:16;;;;;;;11.32;6.80;;;;;;;;;;4957316;28;20038;-80
2021/12/27 07:48:42;;;;;;;10.00;6.35;;;;;;;;;;4957633;28;20055;-79
2021/12/27 07:51:08;;;;;;;13.02;7.95;;;;;;;;;;4958872;28;20035;-79
2021/12/27 07:53:34;;;;;;;10.23;6.43;;;;;;;;;;4957044;29;20032;-79
2021/12/27 07:56:00;;;;;;;10.43;6.43;;;;;;;;;;4958573;29;20055;-79
2021/12/27 07:58:26;;;;;;;7.80;5.50;;;;;;;;;;4962399;28;20039;-80
2021/12/27 08:00:54;;;;;;;7.85;5.50;;;;;;;;;;4961543;28;20031;-79
2021/12/27 08:03:20;;;;;;;7.88;5.93;;;;;;;;;;4961588;28;20139;-80
2021/12/27 08:05:47;;;;;;;8.10;5.35;;;;;;;;;;4961293;28;20174;-79
2021/12/27 08:08:13;;;;;;;10.55;5.68;;;;;;;;;;4960231;29;20020;-79
2021/12/27 08:10:39;;;;;;;9.27;5.55;;;;;;;;;;4962878;28;20028;-81
2021/12/27 08:13:05;;;;;;;9.18;6.00;;;;;;;;;;4967557;28;20462;-81
2021/12/27 08:15:31;;;;;;;9.63;5.68;;;;;;;;;;4959535;28;20094;-80
2021/12/27 08:17:57;;;;;;;9.82;5.68;;;;;;;;;;4947880;29;20132;-81
2021/12/27 08:20:23;;;;;;;7.03;5.80;;;;;;;;;;4948001;29;20031;-80
2021/12/27 08:22:49;;;;;;;8.45;5.68;;;;;;;;;;4949577;29;20038;-80
2021/12/27 08:25:15;;;;;;;9.02;5.80;;;;;;;;;;4947967;29;20098;-81
2021/12/27 08:27:42;;;;;;;8.02;6.00;;;;;;;;;;4950618;29;20027;-81
2021/12/27 08:30:09;;;;;;;9.20;5.85;;;;;;;;;;4966439;28;20046;-79
2021/12/27 08:32:37;;;;;;;8.27;5.93;;;;;;;;;;4965274;29;20031;-81
2021/12/27 08:35:03;;;;;;;10.38;5.40;;;;;;;;;;4968581;28;20034;-79
2021/12/27 08:37:30;;;;;;;7.63;5.30;;;;;;;;;;4969563;29;20067;-78
2021/12/27 08:39:56;;;;;;;8.40;5.82;;;;;;;;;;4970555;28;20020;-80
2021/12/27 08:42:22;;;;;;;8.80;5.68;;;;;;;;;;4968697;28;20086;-81
2021/12/27 08:44:48;;;;;;;8.20;5.32;;;;;;;;;;4968957;28;20063;-81
2021/12/27 08:47:15;;;;;;;6.53;4.82;;;;;;;;;;4967832;28;20475;-82
2021/12/27 08:49:41;;;;;;;6.40;4.93;;;;;;;;;;4966797;28;20027;-81
2021/12/27 08:52:07;;;;;;;7.43;4.50;;;;;;;;;;4967873;28;20028;-81
2021/12/27 08:54:33;;;;;;;6.20;4.75;;;;;;;;;;4966615;29;20055;-80
2021/12/27 08:57:00;;;;;;;5.43;4.47;;;;;;;;;;4966982;28;20045;-81
2021/12/27 08:59:26;;;;;;;6.10;4.30;;;;;;;;;;4966669;28;20031;-81
2021/12/27 09:01:52;;;;;;;8.43;4.30;;;;;;;;;;4967414;28;20023;-82
2021/12/27 09:04:18;;;;;;;6.07;3.88;;;;;;;;;;4966608;28;20498;-81
2021/12/27 09:06:44;;;;;;;4.80;3.75;;;;;;;;;;4966263;28;20143;-81
2021/12/27 09:09:10;;;;;;;5.32;4.30;;;;;;;;;;4965360;28;20090;-81
2021/12/27 09:11:36;;;;;;;6.00;4.13;;;;;;;;;;4966705;28;20027;-81
2021/12/27 09:14:02;;;;;;;6.32;4.72;;;;;;;;;;4965688;29;20038;-79
2021/12/27 09:16:28;;;;;;;7.43;4.00;;;;;;;;;;4949886;29;20441;-82
2021/12/27 09:18:54;;;;;;;5.18;4.00;;;;;;;;;;4945270;29;20061;-80
2021/12/27 09:21:20;;;;;;;6.03;4.07;;;;;;;;;;4946011;29;20046;-81
2021/12/27 09:23:46;;;;;;;6.07;4.18;;;;;;;;;;4952190;29;20039;-81
2021/12/27 09:26:12;;;;;;;8.35;4.18;;;;;;;;;;4954915;29;20038;-81
2021/12/27 09:28:38;;;;;;;5.85;4.60;;;;;;;;;;4952482;29;20115;-81
2021/12/27 09:31:04;;;;;;;5.72;4.28;;;;;;;;;;4937417;29;20058;-83
2021/12/27 09:33:30;;;;;;;5.32;4.05;;;;;;;;;;4959987;28;20535;-80
2021/12/27 09:35:57;;;;;;;5.43;4.57;;;;;;;;;;4960263;29;20061;-79
2021/12/27 09:38:23;;;;;;;6.10;4.30;;;;;;;;;;4963639;28;20039;-82
2021/12/27 09:40:49;;;;;;;8.82;4.65;;;;;;;;;;4973671;28;20102;-81
2021/12/27 09:43:16;;;;;;;6.47;4.13;;;;;;;;;;4980049;28;20031;-80
2021/12/27 09:45:42;;;;;;;7.72;4.43;;;;;;;;;;4981534;28;20039;-81
2021/12/27 09:48:09;;;;;;;7.95;4.40;;;;;;;;;;4963587;29;20051;-81
2021/12/27 09:50:37;;;;;;;5.55;4.00;;;;;;;;;;4961086;28;20033;-82
2021/12/27 09:53:03;;;;;;;5.45;3.80;;;;;;;;;;4968828;28;20058;-81
2021/12/27 09:55:29;;;;;;;3.65;2.90;;;;;;;;;;4957605;29;20248;-80
2021/12/27 09:57:55;;;;;;;5.30;3.45;;;;;;;;;;4970677;28;20041;-81
2021/12/27 10:00:21;;;;;;;4.22;3.33;;;;;;;;;;4970201;28;20034;-81
2021/12/27 10:02:52;;;;;;;4.22;3.50;;;;;;;;;;4978465;28;20033;-79
2021/12/27 10:05:22;;;;;;;5.60;3.33;;;;;;;;;;4963812;28;20031;-79
2021/12/27 10:07:48;;;;;;;4.90;3.73;;;;;;;;;;4960181;29;20420;-80
2021/12/27 10:10:14;;;;;;;5.43;3.38;;;;;;;;;;4959819;28;20039;-81
2021/12/27 10:12:40;;;;;;;4.60;3.30;;;;;;;;;;4976443;28;20430;-80
2021/12/27 10:15:07;;;;;;;5.82;3.63;;;;;;;;;;4973941;28;20035;-80
2021/12/27 10:17:35;;;;;;;5.88;3.38;;;;;;;;;;4961305;28;20403;-81
2021/12/27 10:20:10;;;;;;;7.60;3.53;;;;;;;;;;4964334;28;20031;-80
2021/12/27 10:22:41;;;;;;;5.97;3.42;;;;;;;;;;4976814;28;20023;-81
2021/12/27 10:25:17;;;;;;;4.18;3.10;;;;;;;;;;4970467;28;20028;-80
2021/12/27 10:27:44;;;;;;;4.45;3.75;;;;;;;;;;4965990;28;20059;-81
2021/12/27 10:30:11;;;;;;;6.45;3.72;;;;;;;;;;4947642;28;20035;-79
2021/12/27 10:32:37;;;;;;;4.93;3.47;;;;;;;;;;4986098;28;20042;-79
2021/12/27 10:35:05;;;;;;;5.72;3.38;;;;;;;;;;4985012;28;20387;-80
2021/12/27 10:37:32;;;;;;;5.45;3.55;;;;;;;;;;4985864;28;20054;-82
2021/12/27 10:39:58;;;;;;;6.90;4.38;;;;;;;;;;4985238;28;20494;-80
2021/12/27 10:42:24;;;;;;;5.47;4.10;;;;;;;;;;4981914;28;20035;-80
2021/12/27 10:44:51;;;;;;;9.77;3.95;;;;;;;;;;4981876;28;20029;-80
2021/12/27 10:47:25;;;;;;;5.30;4.10;;;;;;;;;;4978691;28;20573;-79
2021/12/27 10:49:51;;;;;;;5.15;3.67;;;;;;;;;;4983490;28;20122;-80
2021/12/27 10:52:17;;;;;;;7.80;3.90;;;;;;;;;;4986520;28;20050;-82
2021/12/27 10:54:43;;;;;;;5.55;3.70;;;;;;;;;;4985017;28;20106;-81
2021/12/27 10:57:09;;;;;;;5.28;3.88;;;;;;;;;;4966155;28;20059;-80
2021/12/27 10:59:35;;;;;;;7.43;3.95;;;;;;;;;;4965976;28;20028;-82
2021/12/27 11:02:13;;;;;;;4.72;3.85;;;;;;;;;;4963261;29;20054;-81
2021/12/27 11:04:39;;;;;;;5.70;3.35;;;;;;;;;;4965739;28;20106;-81
2021/12/27 11:07:06;;;;;;;5.55;3.65;;;;;;;;;;4965552;28;20035;-80
2021/12/27 11:09:33;;;;;;;5.25;3.80;;;;;;;;;;4966058;28;20054;-82
2021/12/27 11:12:00;;;;;;;11.98;3.40;;;;;;;;;;4978464;28;20054;-81
2021/12/27 11:14:26;;;;;;;5.53;3.38;;;;;;;;;;4959226;28;20110;-82
2021/12/27 11:16:53;;;;;;;3.50;2.63;;;;;;;;;;4963231;29;20035;-82
2021/12/27 11:19:19;;;;;;;4.65;3.20;;;;;;;;;;4966212;28;20435;-82
2021/12/27 11:22:04;;;;;;;6.20;3.10;;;;;;;;;;5021343;23;20046;-82
2021/12/27 11:24:30;;;;;;;3.65;2.60;;;;;;;;;;5014241;28;20034;-84
2021/12/27 11:27:10;;;;;;;3.55;2.63;;;;;;;;;;4997917;28;20037;-85
2021/12/27 11:29:36;;;;;;;4.95;2.25;;;;;;;;;;5006129;28;20022;-84
2021/12/27 11:32:12;;;;;;;2.85;2.30;;;;;;;;;;5008287;28;20041;-84
2021/12/27 11:34:55;;;;;;;5.20;2.35;;;;;;;;;;4998524;28;20036;-83
2021/12/27 11:37:52;;;;;;;5.47;2.70;;;;;;;;;;4998553;28;20045;-83
2021/12/27 11:46:14;;;;;;;2.97;1.90;;;;;;;;;;4976865;28;20061;-83
2021/12/27 11:48:48;;;;;;;2.45;1.85;;;;;;;;;;4979815;28;20034;-82
2021/12/27 11:51:15;;;;;;;2.78;2.25;;;;;;;;;;4978584;28;20023;-84
2021/12/27 11:53:54;;;;;;;3.83;2.33;;;;;;;;;;4977718;28;20027;-83
2021/12/27 12:05:33;;;;;;;3.88;2.00;;;;;;;;;;5083945;23;20126;-82
2021/12/27 12:07:59;;;;;;;2.80;1.80;;;;;;;;;;5015507;28;20141;-82
2021/12/27 12:16:46;;;;;;;3.80;2.70;;;;;;;;;;4975820;28;20102;-83
2021/12/27 12:19:50;;;;;;;3.53;2.30;;;;;;;;;;5011720;28;20421;-80
2021/12/27 12:50:39;;;;;;;6.27;3.67;;;;;;;;;;5240562;22;20863;-80
2021/12/27 12:53:09;;;;;;;7.28;3.72;;;;;;;;;;4996033;28;20038;-80
2021/12/27 12:55:47;;;;;;;5.10;2.70;;;;;;;;;;4998507;28;20065;-82
2021/12/27 13:10:23;;;;;;;6.55;3.08;;;;;;;;;;4979823;28;20089;-83
2021/12/27 13:15:58;;;;;;;4.40;2.72;;;;;;;;;;4977435;28;20093;-82
2021/12/27 13:21:40;;;;;;;5.50;2.90;;;;;;;;;;4903400;28;20093;-84
2021/12/27 13:24:47;;;;;;;4.18;3.03;;;;;;;;;;4962034;28;20026;-82
2021/12/27 13:32:52;;;;;;;5.70;3.35;;;;;;;;;;5224407;23;20054;-82
2021/12/27 13:35:38;;;;;;;5.53;2.88;;;;;;;;;;4995019;28;20030;-83
2021/12/27 13:41:26;;;;;;;5.00;2.85;;;;;;;;;;4956583;29;20070;-79
2021/12/27 13:43:53;;;;;;;8.20;3.33;;;;;;;;;;4956328;29;20129;-82
2021/12/27 13:46:24;;;;;;;6.30;2.90;;;;;;;;;;4972127;28;20498;-83
2021/12/27 13:48:51;;;;;;;9.73;3.97;;;;;;;;;;4978517;28;20027;-82
2021/12/27 13:54:43;;;;;;;6.85;3.45;;;;;;;;;;4948296;28;20518;-82
2021/12/27 14:00:30;;;;;;;8.75;4.45;;;;;;;;;;5009960;23;20060;-83
2021/12/27 14:02:56;;;;;;;6.68;3.35;;;;;;;;;;4996332;28;20065;-82
2021/12/27 14:05:26;;;;;;;7.55;3.70;;;;;;;;;;4996907;28;20447;-84
2021/12/27 14:07:53;;;;;;;8.25;4.07;;;;;;;;;;4995849;28;20094;-81
2021/12/27 14:10:30;;;;;;;6.55;3.55;;;;;;;;;;4994697;28;20113;-82
2021/12/27 14:16:48;;;;;;;7.65;3.50;;;;;;;;;;4973913;28;20026;-81
2021/12/27 14:25:42;;;;;;;6.25;4.10;;;;;;;;;;4996942;28;20032;-84
2021/12/27 14:31:23;;;;;;;6.38;3.60;;;;;;;;;;4978125;28;20108;-82
2021/12/27 14:33:52;;;;;;;6.30;3.50;;;;;;;;;;4979319;28;20398;-81
2021/12/27 14:36:18;;;;;;;5.55;3.70;;;;;;;;;;4979379;28;20030;-82
2021/12/27 14:38:44;;;;;;;5.60;3.25;;;;;;;;;;4979902;28;20549;-83
2021/12/27 14:50:25;;;;;;;6.80;3.63;;;;;;;;;;4980710;28;20066;-79
2021/12/27 14:52:51;;;;;;;5.18;2.80;;;;;;;;;;4979706;28;20653;-81
2021/12/27 14:55:18;;;;;;;4.80;3.63;;;;;;;;;;4978082;28;20658;-82
2021/12/27 14:57:44;;;;;;;8.23;4.55;;;;;;;;;;4979399;28;20110;-83
2021/12/27 15:00:13;;;;;;;5.88;3.85;;;;;;;;;;4978934;28;20018;-83
2021/12/27 15:02:39;;;;;;;7.43;4.40;;;;;;;;;;4979977;28;20035;-83
2021/12/27 15:05:05;;;;;;;6.25;3.92;;;;;;;;;;4979772;28;20529;-83
2021/12/27 15:07:32;;;;;;;11.27;4.55;;;;;;;;;;4979873;28;20050;-81
2021/12/27 15:18:11;;;;;;;8.93;4.75;;;;;;;;;;4998382;28;20116;-81
2021/12/27 15:20:38;;;;;;;6.80;4.07;;;;;;;;;;4999124;28;20165;-82
2021/12/27 15:23:13;;;;;;;11.35;3.92;;;;;;;;;;4997219;28;20022;-81
2021/12/27 15:32:03;;;;;;;6.80;3.55;;;;;;;;;;4956746;29;20041;-82
2021/12/27 15:37:32;;;;;;;7.97;4.35;;;;;;;;;;5105042;22;20035;-81
2021/12/27 15:39:58;;;;;;;7.43;4.65;;;;;;;;;;4995641;28;20041;-82
2021/12/27 15:58:10;;;;;;;8.50;5.43;;;;;;;;;;4956154;28;20093;-81
2021/12/27 16:03:12;;;;;;;12.82;6.30;;;;;;;;;;5071424;23;20077;-79
2021/12/27 16:05:38;;;;;;;10.23;5.72;;;;;;;;;;4996951;28;20091;-83
2021/12/27 16:08:04;;;;;;;11.32;6.93;;;;;;;;;;4996764;28;20026;-82
2021/12/27 16:10:36;;;;;;;8.32;5.90;;;;;;;;;;4998641;28;20041;-81
2021/12/27 16:22:33;;;;;;;10.52;6.57;;;;;;;;;;4994218;28;20097;-82
2021/12/27 16:24:59;;;;;;;12.55;7.07;;;;;;;;;;4994566;28;20038;-82
2021/12/27 16:27:25;;;;;;;10.55;7.07;;;;;;;;;;4978365;28;20548;-82
2021/12/27 16:29:51;;;;;;;10.75;7.25;;;;;;;;;;4993554;28;20592;-81
2021/12/27 16:32:46;;;;;;;;;;;;;;;;;;;;;
2021/12/27 16:35:13;;;;;;;12.32;7.63;;;;;;;;;;4976394;28;20117;-81
2021/12/27 16:44:17;;;;;;;;;;;;;;;;;;;;;
2021/12/27 16:49:28;;;;;;;15.25;9.18;;;;;;;;;;4997136;28;20072;-81
2021/12/27 16:51:54;;;;;;;12.77;8.80;;;;;;;;;;4996711;28;20037;-81
2021/12/27 17:01:07;;;;;;;10.32;7.15;;;;;;;;;;5037538;22;20049;-81
2021/12/27 17:03:33;;;;;;;12.05;8.15;;;;;;;;;;4996063;28;20053;-82
2021/12/27 17:06:00;;;;;;;11.45;7.45;;;;;;;;;;5000110;28;20125;-83
2021/12/27 17:11:30;;;;;;;10.63;7.38;;;;;;;;;;5019373;23;20061;-82
2021/12/27 17:17:17;;;;;;;;;;;;;;;;;;4945682;29;20039;-81
2021/12/27 17:22:26;;;;;;;11.00;7.25;;;;;;;;;;5155933;23;20042;-81
2021/12/27 17:24:52;;;;;;;8.82;6.05;;;;;;;;;;5002437;28;20026;-80
2021/12/27 17:27:18;;;;;;;8.45;5.72;;;;;;;;;;5002663;28;20034;-80
2021/12/27 17:29:44;;;;;;;9.23;6.28;;;;;;;;;;5002425;28;20073;-79
2021/12/27 17:32:10;;;;;;;8.80;6.20;;;;;;;;;;5004672;28;20034;-80
2021/12/27 17:34:37;;;;;;;11.07;6.80;;;;;;;;;;5002912;28;20026;-81
2021/12/27 17:37:05;;;;;;;8.48;5.85;;;;;;;;;;5000094;28;20081;-81
2021/12/27 17:39:31;;;;;;;7.05;5.57;;;;;;;;;;5002184;28;20018;-81
2021/12/27 17:41:57;;;;;;;9.60;5.63;;;;;;;;;;4998654;28;20033;-80
2021/12/27 17:44:24;;;;;;;6.75;5.15;;;;;;;;;;5001513;28;20046;-81
2021/12/27 17:46:50;;;;;;;6.60;5.20;;;;;;;;;;5000710;28;20037;-81
2021/12/27 17:49:16;;;;;;;6.57;4.53;;;;;;;;;;4998605;28;20023;-80
2021/12/27 17:51:42;;;;;;;6.35;4.82;;;;;;;;;;5000933;28;20034;-82
2021/12/27 17:54:08;;;;;;;7.10;5.22;;;;;;;;;;5001726;28;20026;-81
2021/12/27 17:56:35;;;;;;;6.30;4.63;;;;;;;;;;4999821;28;20385;-81
2021/12/27 17:59:02;;;;;;;9.02;5.45;;;;;;;;;;5001914;28;20745;-80
2021/12/27 18:01:28;;;;;;;5.40;4.50;;;;;;;;;;5000635;28;20387;-81
2021/12/27 18:03:56;;;;;;;6.72;4.72;;;;;;;;;;5001066;28;20386;-81
2021/12/27 18:06:23;;;;;;;5.28;4.32;;;;;;;;;;5002390;28;20427;-81
2021/12/27 18:08:49;;;;;;;6.65;4.22;;;;;;;;;;5004429;28;20477;-80
2021/12/27 18:11:15;;;;;;;7.10;5.30;;;;;;;;;;5004621;28;20041;-80
2021/12/27 18:13:42;;;;;;;6.60;4.78;;;;;;;;;;5003354;28;20057;-81
2021/12/27 18:16:08;;;;;;;6.95;4.47;;;;;;;;;;5001493;28;20026;-81
2021/12/27 18:18:35;;;;;;;7.38;5.20;;;;;;;;;;5001738;28;20019;-81
2021/12/27 18:21:01;;;;;;;7.20;4.85;;;;;;;;;;5003208;28;20027;-81
2021/12/27 18:23:27;;;;;;;4.65;3.72;;;;;;;;;;5005205;28;20037;-79
2021/12/27 18:25:53;;;;;;;6.60;4.65;;;;;;;;;;5007816;28;20026;-81
2021/12/27 18:28:19;;;;;;;5.85;4.32;;;;;;;;;;5005993;28;20030;-82
2021/12/27 18:30:45;;;;;;;4.63;3.92;;;;;;;;;;5006982;28;20033;-79
2021/12/27 18:33:11;;;;;;;5.47;4.40;;;;;;;;;;5005730;28;20039;-80
2021/12/27 18:35:37;;;;;;;4.60;3.70;;;;;;;;;;5005962;28;20053;-81